Millville, Iowa
Current Conditions -  °F | °C
As of 11:55 AM on Friday 21 Nov 2014 (Local Time) from KPDC Reporting Station
Clear Clear  
Wind Chill: 19°   Ceiling: Unl
Heat Index: 26°   Visibility: 10mi
Dew Point:   Wind: 7mph
Humidity: 38%   Direction: 160°SSE
Pressure: 30.31"   Gusts: NA
Location:  42.743°N, 91.1647°W
Report Text: KPDC 211755Z AUTO 16006KT 10SM CLR M03/M16 A3031 RMK AO2 T10321157 11032 21155
Loading
Personal Weather Stations






























Interactive Weather Map New forecast layout! Learn more

10-Day Weather Forecast

Advertisements
Track Severe Weather on mobile